createdAt,value
2019-05-22T00:00:38.741Z,20.60
2019-05-22T00:01:38.724Z,20.50
2019-05-22T00:02:38.727Z,19.90
2019-05-22T00:03:38.714Z,21.30
2019-05-22T00:04:38.704Z,21.20
2019-05-22T00:05:38.683Z,20.40
2019-05-22T00:06:38.691Z,21.00
2019-05-22T00:07:38.690Z,21.10
2019-05-22T00:08:38.650Z,21.10
2019-05-22T00:09:38.684Z,21.00
2019-05-22T00:10:38.643Z,21.50
2019-05-22T00:11:38.616Z,22.10
2019-05-22T00:12:46.734Z,21.50
2019-05-22T00:13:39.623Z,21.80
2019-05-22T00:14:38.603Z,21.70
2019-05-22T00:15:38.899Z,20.40
2019-05-22T00:16:38.556Z,21.80
2019-05-22T00:17:38.544Z,22.50
2019-05-22T00:18:38.561Z,21.80
2019-05-22T00:19:38.528Z,22.00
2019-05-22T00:20:38.520Z,22.70
2019-05-22T00:21:38.511Z,21.70
2019-05-22T00:22:38.490Z,22.10
2019-05-22T00:23:38.515Z,21.70
2019-05-22T00:24:38.497Z,21.50
2019-05-22T00:25:38.486Z,22.20
2019-05-22T00:26:38.451Z,22.00
2019-05-22T00:27:38.450Z,22.30
2019-05-22T00:28:38.436Z,22.40
2019-05-22T00:29:38.416Z,21.80
2019-05-22T00:30:38.414Z,20.40
2019-05-22T00:31:38.434Z,22.50
2019-05-22T00:32:38.398Z,21.20
2019-05-22T00:33:38.390Z,21.60
2019-05-22T00:34:38.361Z,21.50
2019-05-22T00:35:38.376Z,21.10
2019-05-22T00:36:38.331Z,21.90
2019-05-22T00:37:38.324Z,21.50
2019-05-22T00:38:38.338Z,22.30
2019-05-22T00:39:38.376Z,21.40
2019-05-22T00:40:39.192Z,21.60
2019-05-22T00:41:38.293Z,21.40
2019-05-22T00:42:38.279Z,22.20
2019-05-22T00:43:38.298Z,21.30
2019-05-22T00:44:38.253Z,20.70
2019-05-22T00:45:38.235Z,21.10
2019-05-22T00:46:38.222Z,20.30
2019-05-22T00:47:38.220Z,21.20
2019-05-22T00:48:38.227Z,19.50
2019-05-22T00:49:38.185Z,18.80
2019-05-22T00:50:38.180Z,19.40
2019-05-22T00:51:38.168Z,18.60
2019-05-22T00:52:38.173Z,19.30
2019-05-22T00:53:38.179Z,18.60
2019-05-22T00:54:38.148Z,18.30
2019-05-22T00:55:38.129Z,18.20
2019-05-22T00:56:38.120Z,18.00
2019-05-22T00:57:38.101Z,17.10
2019-05-22T00:58:38.139Z,17.60
2019-05-22T00:59:38.121Z,17.90
2019-05-22T01:00:38.070Z,17.50
2019-05-22T01:01:38.064Z,18.20
2019-05-22T01:02:38.045Z,17.90
2019-05-22T01:03:38.049Z,18.30
2019-05-22T01:04:38.053Z,18.60
2019-05-22T01:05:38.019Z,17.90
2019-05-22T01:06:38.009Z,17.70
2019-05-22T01:07:38.007Z,17.50
2019-05-22T01:08:38.014Z,17.20
2019-05-22T01:09:37.988Z,18.30
2019-05-22T01:10:37.992Z,17.80
2019-05-22T01:11:37.961Z,17.50
2019-05-22T01:12:37.933Z,17.50
2019-05-22T01:13:37.923Z,17.80
2019-05-22T01:14:42.772Z,17.90
2019-05-22T01:15:38.898Z,17.50
2019-05-22T01:16:37.894Z,16.60
2019-05-22T01:17:37.888Z,17.10
2019-05-22T01:18:37.898Z,16.60
2019-05-22T01:19:37.890Z,16.30
2019-05-22T01:20:37.851Z,15.30
2019-05-22T01:21:37.834Z,15.30
2019-05-22T01:22:37.826Z,14.60
2019-05-22T01:23:37.812Z,15.30
2019-05-22T01:24:37.811Z,15.00
2019-05-22T01:25:37.823Z,14.80
2019-05-22T01:26:37.784Z,15.00
2019-05-22T01:27:37.770Z,14.60
2019-05-22T01:28:37.766Z,15.50
2019-05-22T01:29:37.758Z,14.50
2019-05-22T01:30:37.764Z,14.90
2019-05-22T01:31:37.728Z,14.90
2019-05-22T01:32:37.721Z,15.40
2019-05-22T01:33:37.736Z,15.10
2019-05-22T01:34:37.733Z,14.80
2019-05-22T01:35:37.713Z,15.10
2019-05-22T01:36:37.698Z,15.70
2019-05-22T01:37:37.662Z,15.00
2019-05-22T01:38:37.662Z,15.60
2019-05-22T01:39:37.645Z,15.50
2019-05-22T01:40:37.642Z,14.50
2019-05-22T01:41:37.621Z,14.60
2019-05-22T01:42:37.598Z,14.50
2019-05-22T01:43:37.600Z,14.40
2019-05-22T01:44:37.596Z,14.10
2019-05-22T01:45:37.627Z,14.90
2019-05-22T01:46:37.557Z,14.00
2019-05-22T01:47:37.559Z,13.90
2019-05-22T01:48:37.537Z,13.80
2019-05-22T01:49:37.528Z,13.50
2019-05-22T01:50:37.567Z,13.50
2019-05-22T01:51:37.500Z,14.80
2019-05-22T01:52:37.501Z,13.50
2019-05-22T01:53:37.484Z,13.00
2019-05-22T01:54:37.467Z,13.30
2019-05-22T01:55:37.478Z,12.80
2019-05-22T01:56:37.461Z,13.20
2019-05-22T01:57:37.442Z,13.60
2019-05-22T01:58:37.513Z,14.00
2019-05-22T01:59:37.418Z,12.30
2019-05-22T02:00:37.458Z,13.10
2019-05-22T02:01:37.404Z,12.50
2019-05-22T02:02:37.385Z,13.10
2019-05-22T02:03:37.385Z,12.50
2019-05-22T02:04:37.367Z,12.60
2019-05-22T02:05:37.361Z,12.70
2019-05-22T02:06:37.399Z,12.50
2019-05-22T02:07:37.340Z,12.40
2019-05-22T02:08:37.313Z,12.10
2019-05-22T02:09:37.315Z,11.60
2019-05-22T02:10:37.310Z,12.50
2019-05-22T02:11:37.302Z,12.20
2019-05-22T02:12:37.295Z,12.60
2019-05-22T02:13:37.261Z,11.90
2019-05-22T02:14:37.257Z,12.40
2019-05-22T02:15:37.233Z,12.20
2019-05-22T02:16:37.265Z,11.40
2019-05-22T02:17:37.224Z,12.20
2019-05-22T02:18:37.198Z,11.80
2019-05-22T02:19:37.197Z,11.30
2019-05-22T02:20:37.183Z,12.00
2019-05-22T02:21:37.190Z,11.80
2019-05-22T02:22:37.155Z,11.50
2019-05-22T02:23:37.164Z,12.00
2019-05-22T02:24:37.140Z,11.10
2019-05-22T02:25:37.154Z,11.50
2019-05-22T02:26:37.131Z,11.50
2019-05-22T02:27:37.097Z,10.70
2019-05-22T02:28:37.100Z,11.10
2019-05-22T02:29:37.093Z,10.80
2019-05-22T02:30:37.079Z,10.50
2019-05-22T02:31:37.084Z,10.30
2019-05-22T02:32:37.046Z,9.70
2019-05-22T02:33:37.060Z,9.60
2019-05-22T02:34:37.034Z,9.30
2019-05-22T02:35:37.052Z,9.70
2019-05-22T02:36:37.068Z,9.30
2019-05-22T02:37:36.997Z,8.90
2019-05-22T02:38:37.001Z,9.20
2019-05-22T02:39:36.973Z,9.00
2019-05-22T02:40:36.978Z,9.70
2019-05-22T02:41:36.967Z,9.60
2019-05-22T02:42:36.969Z,9.20
2019-05-22T02:43:36.930Z,9.70
2019-05-22T02:44:36.911Z,9.70
2019-05-22T02:45:36.909Z,9.60
2019-05-22T02:46:36.898Z,9.40
2019-05-22T02:47:36.904Z,8.90
2019-05-22T02:48:36.874Z,8.60
2019-05-22T02:49:36.858Z,8.40
2019-05-22T02:50:36.842Z,8.40
2019-05-22T02:51:36.846Z,7.80
2019-05-22T02:52:36.860Z,7.60
2019-05-22T02:53:36.819Z,8.40
2019-05-22T02:54:36.817Z,8.00
2019-05-22T02:55:36.796Z,7.90
2019-05-22T02:56:36.791Z,7.90
2019-05-22T02:57:36.791Z,7.90
2019-05-22T02:58:36.754Z,8.00
2019-05-22T02:59:36.787Z,7.20
2019-05-22T03:00:36.737Z,7.60
2019-05-22T03:01:36.731Z,7.40
2019-05-22T03:02:36.740Z,7.70
2019-05-22T03:03:36.755Z,7.50
2019-05-22T03:04:36.694Z,8.40
2019-05-22T03:05:36.698Z,7.90
2019-05-22T03:06:36.686Z,7.60
2019-05-22T03:07:36.663Z,7.90
2019-05-22T03:08:36.685Z,7.60
2019-05-22T03:09:36.648Z,7.90
2019-05-22T03:10:36.645Z,8.10
2019-05-22T03:11:36.624Z,8.30
2019-05-22T03:12:36.610Z,8.70
2019-05-22T03:13:36.847Z,8.30
2019-05-22T03:14:36.593Z,8.70
2019-05-22T03:15:36.618Z,9.30
2019-05-22T03:16:36.621Z,8.90
2019-05-22T03:17:37.259Z,9.00
2019-05-22T03:18:36.560Z,9.30
2019-05-22T03:19:36.555Z,9.70
2019-05-22T03:20:36.537Z,8.80
2019-05-22T03:21:36.530Z,9.00
2019-05-22T03:22:36.498Z,9.00
2019-05-22T03:23:36.876Z,9.40
2019-05-22T03:24:36.481Z,9.40
2019-05-22T03:25:36.469Z,9.00
2019-05-22T03:26:36.457Z,8.60
2019-05-22T03:27:36.435Z,9.20
2019-05-22T03:28:36.457Z,9.00
2019-05-22T03:29:36.426Z,8.60
2019-05-22T03:30:36.422Z,9.70
2019-05-22T03:31:36.489Z,8.70
2019-05-22T03:32:43.033Z,8.70
2019-05-22T03:33:37.419Z,9.50
2019-05-22T03:34:36.353Z,9.70
2019-05-22T03:35:36.361Z,9.10
2019-05-22T03:36:36.345Z,8.60
2019-05-22T03:37:36.318Z,9.20
2019-05-22T03:38:36.309Z,9.00
2019-05-22T03:39:36.347Z,8.90
2019-05-22T03:40:36.286Z,9.30
2019-05-22T03:41:36.275Z,9.10
2019-05-22T03:42:36.265Z,8.70
2019-05-22T03:43:36.259Z,8.80
2019-05-22T03:44:36.260Z,9.60
2019-05-22T03:45:36.243Z,10.00
2019-05-22T03:46:36.277Z,8.60
2019-05-22T03:47:36.232Z,9.10
2019-05-22T03:48:36.205Z,9.20
2019-05-22T03:49:36.216Z,9.50
2019-05-22T03:50:36.202Z,9.20
2019-05-22T03:51:36.167Z,8.80
2019-05-22T03:52:36.161Z,9.40
2019-05-22T03:53:36.142Z,8.90
2019-05-22T03:54:36.198Z,8.90
2019-05-22T03:55:36.127Z,8.60
2019-05-22T03:56:36.145Z,8.70
2019-05-22T03:57:36.102Z,8.20
2019-05-22T03:58:36.095Z,8.70
2019-05-22T03:59:36.112Z,9.20
2019-05-22T04:00:36.089Z,8.50
2019-05-22T04:01:36.060Z,8.60
2019-05-22T04:02:36.052Z,8.70
2019-05-22T04:03:36.046Z,8.60
2019-05-22T04:04:36.033Z,9.00
2019-05-22T04:05:36.048Z,9.00
2019-05-22T04:06:36.007Z,8.40
2019-05-22T04:07:35.995Z,9.00
2019-05-22T04:08:35.979Z,9.00
2019-05-22T04:09:35.966Z,9.50
2019-05-22T04:10:35.979Z,8.80
2019-05-22T04:11:35.950Z,8.70
2019-05-22T04:12:35.956Z,8.70
2019-05-22T04:13:35.940Z,8.50
2019-05-22T04:14:35.936Z,8.40
2019-05-22T04:15:35.922Z,8.60
2019-05-22T04:16:35.939Z,8.70
2019-05-22T04:17:35.877Z,8.60
2019-05-22T04:18:35.888Z,9.60
2019-05-22T04:19:48.408Z,8.50
2019-05-22T04:20:36.871Z,9.30
2019-05-22T04:21:35.845Z,9.20
2019-05-22T04:22:35.824Z,9.00
2019-05-22T04:23:35.820Z,9.10
2019-05-22T04:24:35.805Z,9.20
2019-05-22T04:25:35.812Z,9.90
2019-05-22T04:26:35.788Z,10.10
2019-05-22T04:27:35.766Z,9.70
2019-05-22T04:28:35.757Z,9.60
2019-05-22T04:29:35.751Z,10.20
2019-05-22T04:30:35.770Z,10.20
2019-05-22T04:31:35.722Z,10.30
2019-05-22T04:32:35.722Z,10.60
2019-05-22T04:33:35.698Z,10.10
2019-05-22T04:34:35.686Z,10.30
2019-05-22T04:35:35.710Z,9.80
2019-05-22T04:36:35.659Z,10.30
2019-05-22T04:37:35.668Z,9.90
2019-05-22T04:38:35.657Z,10.40
2019-05-22T04:39:35.640Z,10.10
2019-05-22T04:40:35.680Z,9.40
2019-05-22T04:41:35.612Z,9.80
2019-05-22T04:42:35.612Z,9.90
2019-05-22T04:43:35.592Z,9.60
2019-05-22T04:44:35.583Z,9.50
2019-05-22T04:45:35.568Z,10.00
2019-05-22T04:46:35.579Z,9.50
2019-05-22T04:47:35.536Z,9.10
2019-05-22T04:48:35.546Z,8.80
2019-05-22T04:49:35.537Z,8.70
2019-05-22T04:50:35.515Z,8.90
2019-05-22T04:51:35.525Z,8.80
2019-05-22T04:52:35.501Z,8.60
2019-05-22T04:53:35.476Z,8.80
2019-05-22T04:54:35.470Z,9.40
2019-05-22T04:55:35.478Z,10.10
2019-05-22T04:56:35.501Z,9.00
2019-05-22T04:57:35.446Z,9.80
2019-05-22T04:58:35.429Z,8.90
2019-05-22T04:59:35.408Z,9.30
2019-05-22T05:00:35.405Z,9.20
2019-05-22T05:01:35.419Z,10.00
2019-05-22T05:02:35.383Z,9.40
2019-05-22T05:03:35.375Z,9.30
2019-05-22T05:04:35.361Z,8.60
2019-05-22T05:05:35.347Z,8.80
2019-05-22T05:06:35.364Z,9.20
2019-05-22T05:07:35.325Z,8.30
2019-05-22T05:08:35.322Z,8.30
2019-05-22T05:09:35.300Z,8.40
2019-05-22T05:10:35.291Z,9.00
2019-05-22T05:11:35.305Z,8.80
2019-05-22T05:12:35.308Z,9.00
2019-05-22T05:13:35.260Z,8.80
2019-05-22T05:14:35.251Z,9.30
2019-05-22T05:15:37.263Z,8.50
2019-05-22T05:16:35.286Z,8.80
2019-05-22T05:17:35.214Z,8.00
2019-05-22T05:18:35.235Z,8.00
2019-05-22T05:19:35.193Z,7.30
2019-05-22T05:20:35.188Z,6.40
2019-05-22T05:21:35.192Z,5.90
2019-05-22T05:22:35.163Z,5.60
2019-05-22T05:23:35.158Z,5.60
2019-05-22T05:24:35.154Z,5.70
2019-05-22T05:25:35.125Z,5.50
2019-05-22T05:26:35.130Z,5.40
2019-05-22T05:27:35.145Z,5.40
2019-05-22T05:28:35.138Z,5.10
2019-05-22T05:29:35.104Z,5.80
2019-05-22T05:30:35.072Z,5.20
2019-05-22T05:31:35.072Z,5.60
2019-05-22T05:32:35.046Z,5.10
2019-05-22T05:33:35.037Z,5.40
2019-05-22T05:34:35.018Z,5.30
2019-05-22T05:35:35.018Z,5.20
2019-05-22T05:36:35.021Z,5.50
2019-05-22T05:37:35.004Z,5.60
2019-05-22T05:38:34.970Z,4.70
2019-05-22T05:39:35.078Z,5.40
2019-05-22T05:40:34.971Z,5.50
2019-05-22T05:41:34.968Z,5.30
2019-05-22T05:42:34.951Z,5.00
2019-05-22T05:43:34.940Z,4.80
2019-05-22T05:44:34.917Z,5.30
2019-05-22T05:45:34.903Z,4.90
2019-05-22T05:46:34.908Z,5.40
2019-05-22T05:47:34.883Z,5.30
2019-05-22T05:48:34.889Z,5.20
2019-05-22T05:49:34.867Z,5.40
2019-05-22T05:50:39.383Z,5.70
2019-05-22T05:51:35.858Z,5.30
2019-05-22T05:52:34.824Z,5.10
2019-05-22T05:53:34.807Z,5.30
2019-05-22T05:54:34.821Z,5.10
2019-05-22T05:55:34.784Z,5.60
2019-05-22T05:56:34.800Z,5.20
2019-05-22T05:57:34.772Z,5.40
2019-05-22T05:58:34.752Z,5.70
2019-05-22T05:59:34.748Z,5.50
2019-05-22T06:00:34.771Z,5.60
2019-05-22T06:01:34.786Z,6.10
2019-05-22T06:02:34.732Z,6.70
2019-05-22T06:03:34.698Z,6.00
2019-05-22T06:04:35.619Z,6.30
2019-05-22T06:05:34.676Z,6.20
2019-05-22T06:06:34.748Z,6.10
2019-05-22T06:07:34.693Z,6.30
2019-05-22T06:08:34.640Z,6.60
2019-05-22T06:09:34.656Z,5.80
2019-05-22T06:10:34.641Z,6.20
2019-05-22T06:11:34.634Z,6.00
2019-05-22T06:12:34.626Z,6.30
2019-05-22T06:13:34.592Z,6.40
2019-05-22T06:14:34.582Z,6.70
2019-05-22T06:15:46.595Z,6.80
2019-05-22T06:16:35.580Z,7.00
2019-05-22T06:17:34.557Z,6.50
2019-05-22T06:18:34.529Z,7.30
2019-05-22T06:19:34.535Z,6.60
2019-05-22T06:20:34.507Z,6.40
2019-05-22T06:21:34.519Z,6.70
2019-05-22T06:22:34.519Z,7.60
2019-05-22T06:23:34.472Z,7.00
2019-05-22T06:24:34.478Z,7.20
2019-05-22T06:25:34.453Z,7.60
2019-05-22T06:26:34.453Z,7.40
2019-05-22T06:27:34.454Z,6.70
2019-05-22T06:28:34.433Z,6.80
2019-05-22T06:29:34.410Z,7.40
2019-05-22T06:30:34.406Z,7.10
2019-05-22T06:31:34.391Z,7.40
2019-05-22T06:32:34.413Z,7.10
2019-05-22T06:33:34.357Z,7.10
2019-05-22T06:34:34.371Z,7.40
2019-05-22T06:35:34.337Z,7.30
2019-05-22T06:36:34.327Z,7.00
2019-05-22T06:37:34.371Z,6.30
2019-05-22T06:38:34.321Z,6.70
2019-05-22T06:39:34.304Z,7.10
2019-05-22T06:40:34.301Z,7.00
2019-05-22T06:41:34.275Z,7.00
2019-05-22T06:42:34.332Z,6.70
2019-05-22T06:43:34.261Z,6.70
2019-05-22T06:44:34.245Z,7.70
2019-05-22T06:45:35.670Z,6.80
2019-05-22T06:46:34.233Z,6.70
2019-05-22T06:47:34.247Z,7.20
2019-05-22T06:48:34.199Z,6.70
2019-05-22T06:49:34.195Z,7.50
2019-05-22T06:50:34.178Z,6.40
2019-05-22T06:51:34.175Z,6.70
2019-05-22T06:52:34.272Z,6.70
2019-05-22T06:53:34.205Z,6.70
2019-05-22T06:54:34.379Z,7.60
2019-05-22T06:55:34.147Z,6.80
2019-05-22T06:56:34.107Z,7.40
2019-05-22T06:57:34.117Z,7.30
2019-05-22T06:58:34.103Z,6.90
2019-05-22T06:59:34.100Z,6.40
2019-05-22T07:00:34.077Z,6.50
2019-05-22T07:01:34.076Z,6.80
2019-05-22T07:02:34.061Z,6.60
2019-05-22T07:03:34.043Z,6.70
2019-05-22T07:04:34.023Z,7.10
2019-05-22T07:05:34.011Z,6.80
2019-05-22T07:06:34.012Z,6.80
2019-05-22T07:07:34.014Z,6.80
2019-05-22T07:08:33.990Z,6.60
2019-05-22T07:09:34.024Z,6.20
2019-05-22T07:10:33.951Z,6.70
2019-05-22T07:11:33.986Z,6.30
2019-05-22T07:12:33.934Z,5.80
2019-05-22T07:13:33.950Z,6.20
2019-05-22T07:14:33.920Z,6.20
2019-05-22T07:15:33.900Z,6.00
2019-05-22T07:16:33.893Z,5.90
2019-05-22T07:17:33.888Z,6.00
2019-05-22T07:18:33.890Z,6.30
2019-05-22T07:19:33.857Z,6.40
2019-05-22T07:20:33.857Z,5.90
2019-05-22T07:21:34.311Z,6.40
2019-05-22T07:22:33.826Z,5.90
2019-05-22T07:23:33.836Z,6.60
2019-05-22T07:24:33.801Z,6.20
2019-05-22T07:25:33.831Z,6.10
2019-05-22T07:26:33.766Z,6.50
2019-05-22T07:27:33.770Z,5.90
2019-05-22T07:28:33.780Z,6.00
2019-05-22T07:29:33.755Z,6.40
2019-05-22T07:30:33.742Z,6.60
2019-05-22T07:31:33.730Z,6.10
2019-05-22T07:32:33.721Z,6.60
2019-05-22T07:33:33.741Z,6.70
2019-05-22T07:34:33.683Z,6.40
2019-05-22T07:35:49.714Z,6.70
2019-05-22T07:36:34.670Z,6.40
2019-05-22T07:37:33.744Z,6.30
2019-05-22T07:38:33.707Z,6.10
2019-05-22T07:39:33.628Z,5.60
2019-05-22T07:40:33.620Z,6.40
2019-05-22T07:41:33.640Z,5.80
2019-05-22T07:42:33.610Z,6.20
2019-05-22T07:43:33.619Z,5.90
2019-05-22T07:44:33.577Z,5.50
2019-05-22T07:45:33.575Z,6.00
2019-05-22T07:46:33.565Z,5.90
2019-05-22T07:47:33.550Z,6.10
2019-05-22T07:48:33.551Z,6.20
2019-05-22T07:49:33.526Z,5.40
2019-05-22T07:50:33.512Z,6.10
2019-05-22T07:51:33.519Z,5.50
2019-05-22T07:52:33.498Z,6.30
2019-05-22T07:53:33.506Z,5.80
2019-05-22T07:54:33.477Z,6.10
2019-05-22T07:55:33.466Z,6.00
2019-05-22T07:56:33.449Z,5.80
2019-05-22T07:57:33.446Z,5.40
2019-05-22T07:58:33.445Z,6.10
2019-05-22T07:59:33.414Z,5.80
2019-05-22T08:00:33.406Z,5.80
2019-05-22T08:01:33.390Z,5.60
2019-05-22T08:02:33.393Z,5.40
2019-05-22T08:03:33.390Z,5.20
2019-05-22T08:04:33.355Z,5.10
2019-05-22T08:05:33.358Z,4.90
2019-05-22T08:06:33.352Z,5.40
2019-05-22T08:07:33.336Z,5.50
2019-05-22T08:08:33.421Z,5.30
2019-05-22T08:09:33.328Z,5.20
2019-05-22T08:10:33.407Z,5.50
2019-05-22T08:11:33.275Z,5.40
2019-05-22T08:12:33.365Z,5.20
2019-05-22T08:13:33.283Z,5.40
2019-05-22T08:14:33.254Z,5.20
2019-05-22T08:15:33.232Z,5.70
2019-05-22T08:16:33.229Z,5.20
2019-05-22T08:17:33.209Z,5.70
2019-05-22T08:18:33.229Z,5.10
2019-05-22T08:19:33.199Z,5.50
2019-05-22T08:20:33.185Z,5.30
2019-05-22T08:21:33.206Z,5.20
2019-05-22T08:22:33.156Z,5.10
2019-05-22T08:23:33.174Z,4.90
2019-05-22T08:24:33.135Z,5.30
2019-05-22T08:25:33.116Z,5.40
2019-05-22T08:26:33.129Z,5.20
2019-05-22T08:27:33.098Z,5.40
2019-05-22T08:28:33.209Z,5.80
2019-05-22T08:29:33.070Z,5.10
2019-05-22T08:30:33.069Z,5.40
2019-05-22T08:31:33.056Z,5.50
2019-05-22T08:32:33.044Z,5.40
2019-05-22T08:33:33.031Z,5.50
2019-05-22T08:34:33.065Z,6.30
2019-05-22T08:35:32.999Z,5.40
2019-05-22T08:36:33.063Z,5.20
2019-05-22T08:37:33.001Z,5.30
2019-05-22T08:38:32.977Z,5.50
2019-05-22T08:39:32.982Z,5.40
2019-05-22T08:40:32.978Z,5.60
2019-05-22T08:41:33.043Z,5.40
2019-05-22T08:42:35.474Z,5.00
2019-05-22T08:43:52.348Z,5.40
2019-05-22T08:44:33.933Z,5.10
2019-05-22T08:45:32.909Z,5.00
2019-05-22T08:46:32.888Z,5.40
2019-05-22T08:47:32.877Z,5.10
2019-05-22T08:48:32.867Z,4.90
2019-05-22T08:49:32.874Z,5.00
2019-05-22T08:50:32.909Z,5.40
2019-05-22T08:51:32.847Z,5.50
2019-05-22T08:52:32.817Z,5.70
2019-05-22T08:53:46.008Z,5.10
2019-05-22T08:54:33.817Z,5.20
2019-05-22T08:55:32.803Z,5.90
2019-05-22T08:56:32.772Z,5.40
2019-05-22T08:57:32.764Z,5.40
2019-05-22T08:58:32.758Z,5.30
2019-05-22T08:59:32.759Z,5.20
2019-05-22T09:00:32.766Z,5.20
2019-05-22T09:01:32.734Z,4.80
2019-05-22T09:02:32.750Z,5.30
2019-05-22T09:03:32.707Z,4.80
2019-05-22T09:04:32.729Z,5.20
2019-05-22T09:05:32.689Z,5.00
2019-05-22T09:06:32.704Z,5.30
2019-05-22T09:07:32.646Z,5.20
2019-05-22T09:08:32.747Z,6.00
2019-05-22T09:09:32.665Z,5.40
2019-05-22T09:10:32.642Z,5.10
2019-05-22T09:11:32.701Z,4.90
2019-05-22T09:12:32.671Z,5.00
2019-05-22T09:13:32.599Z,5.30
2019-05-22T09:14:32.629Z,5.60
2019-05-22T09:15:32.571Z,5.60
2019-05-22T09:16:32.558Z,5.70
2019-05-22T09:17:32.548Z,5.30
2019-05-22T09:18:32.533Z,5.10
2019-05-22T09:19:32.535Z,5.50
2019-05-22T09:20:48.147Z,5.60
2019-05-22T09:21:32.506Z,5.00
2019-05-22T09:22:40.512Z,5.60
2019-05-22T09:23:33.484Z,5.40
2019-05-22T09:24:32.523Z,5.40
2019-05-22T09:25:32.450Z,5.30
2019-05-22T09:26:32.443Z,5.30
2019-05-22T09:27:32.427Z,4.90
2019-05-22T09:28:32.423Z,4.80
2019-05-22T09:29:32.435Z,4.80
2019-05-22T09:30:32.400Z,4.70
2019-05-22T09:31:32.395Z,4.90
2019-05-22T09:32:32.411Z,4.80
2019-05-22T09:33:32.369Z,5.10
2019-05-22T09:34:32.365Z,5.30
2019-05-22T09:35:32.366Z,5.60
2019-05-22T09:36:32.332Z,5.10
2019-05-22T09:37:32.334Z,4.80
2019-05-22T09:38:32.401Z,5.00
2019-05-22T09:39:32.327Z,5.20
2019-05-22T09:40:32.289Z,4.90
2019-05-22T09:41:32.287Z,5.00
2019-05-22T09:42:32.271Z,4.90
2019-05-22T09:43:32.270Z,5.40
2019-05-22T09:44:32.276Z,4.70
2019-05-22T09:45:32.275Z,5.70
2019-05-22T09:46:32.239Z,5.20
2019-05-22T09:47:32.215Z,5.50
2019-05-22T09:48:32.195Z,5.20
2019-05-22T09:49:32.233Z,5.10
2019-05-22T09:50:32.179Z,4.60
2019-05-22T09:51:32.192Z,4.70
2019-05-22T09:52:32.161Z,4.90
2019-05-22T09:53:32.145Z,4.40
2019-05-22T09:54:32.140Z,4.70
2019-05-22T09:55:32.152Z,4.30
2019-05-22T09:56:32.105Z,4.50
2019-05-22T09:57:32.108Z,4.00
2019-05-22T09:58:32.094Z,4.30
2019-05-22T09:59:32.085Z,4.00
2019-05-22T10:00:32.085Z,4.00
2019-05-22T10:01:32.094Z,4.20
2019-05-22T10:02:32.052Z,4.30
2019-05-22T10:03:32.043Z,4.20
2019-05-22T10:04:32.076Z,4.20
2019-05-22T10:05:32.033Z,4.10
2019-05-22T10:06:32.048Z,3.90
2019-05-22T10:07:32.025Z,4.20
2019-05-22T10:08:31.983Z,4.30
2019-05-22T10:09:31.982Z,4.80
2019-05-22T10:10:31.976Z,4.10
2019-05-22T10:11:31.951Z,4.00
2019-05-22T10:12:31.933Z,4.40
2019-05-22T10:13:32.039Z,4.80
2019-05-22T10:14:31.932Z,4.10
2019-05-22T10:15:32.366Z,4.30
2019-05-22T10:16:31.907Z,4.30
2019-05-22T10:17:31.887Z,4.50
2019-05-22T10:18:31.884Z,4.30
2019-05-22T10:19:31.855Z,4.60
2019-05-22T10:20:31.846Z,4.60
2019-05-22T10:21:31.867Z,4.50
2019-05-22T10:22:31.836Z,4.10
2019-05-22T10:23:31.806Z,4.10
2019-05-22T10:24:31.816Z,4.70
2019-05-22T10:25:31.820Z,4.80
2019-05-22T10:26:31.792Z,4.40
2019-05-22T10:27:31.761Z,4.50
2019-05-22T10:28:31.770Z,4.50
2019-05-22T10:29:32.437Z,5.00
2019-05-22T10:30:31.757Z,4.80
2019-05-22T10:31:31.718Z,4.60
2019-05-22T10:32:32.517Z,5.90
2019-05-22T10:33:31.710Z,4.70
2019-05-22T10:34:31.689Z,4.60
2019-05-22T10:35:31.711Z,4.60
2019-05-22T10:36:31.659Z,5.30
2019-05-22T10:37:31.672Z,4.40
2019-05-22T10:38:31.706Z,4.50
2019-05-22T10:43:14.555Z,4.80
2019-05-22T10:44:00.471Z,4.60
2019-05-22T10:45:00.457Z,4.60
2019-05-22T10:46:00.477Z,4.70
2019-05-22T10:47:00.448Z,4.50
2019-05-22T10:48:00.445Z,4.90
2019-05-22T10:49:00.409Z,5.10
2019-05-22T10:50:00.407Z,4.40
2019-05-22T10:51:00.418Z,5.60
2019-05-22T10:52:00.375Z,5.10
2019-05-22T10:53:00.371Z,4.80
2019-05-22T10:54:00.375Z,5.60
2019-05-22T10:55:00.339Z,4.60
2019-05-22T10:56:00.360Z,5.40
2019-05-22T10:57:00.322Z,5.20
2019-05-22T10:58:00.304Z,5.20
2019-05-22T10:59:01.702Z,4.90
2019-05-22T11:00:00.310Z,5.10
2019-05-22T11:01:00.307Z,5.40
2019-05-22T11:02:00.269Z,4.90
2019-05-22T11:03:00.269Z,5.50
2019-05-22T11:04:00.262Z,5.40
2019-05-22T11:05:00.269Z,5.30
2019-05-22T11:06:07.181Z,5.50
2019-05-22T11:07:01.247Z,5.20
2019-05-22T11:08:00.201Z,5.80
2019-05-22T11:09:00.193Z,5.50
2019-05-22T11:10:00.206Z,5.60
2019-05-22T11:11:00.179Z,5.80
2019-05-22T11:12:00.184Z,5.60
2019-05-22T11:13:00.146Z,5.50
2019-05-22T11:14:01.936Z,5.80
2019-05-22T11:15:00.123Z,6.60
2019-05-22T11:16:00.113Z,6.40
2019-05-22T11:17:01.554Z,6.00
2019-05-22T11:18:00.085Z,6.40
2019-05-22T11:19:00.097Z,5.50
2019-05-22T11:20:00.067Z,6.10
2019-05-22T11:21:00.063Z,7.00
2019-05-22T11:22:00.067Z,6.60
2019-05-22T11:23:00.033Z,6.50
2019-05-22T11:24:00.025Z,6.20
2019-05-22T11:25:00.002Z,6.40
2019-05-22T11:26:00.040Z,6.60
2019-05-22T11:27:00.010Z,7.20
2019-05-22T11:27:59.982Z,7.40
2019-05-22T11:29:00.026Z,6.80
2019-05-22T11:29:59.966Z,7.10
2019-05-22T11:30:59.972Z,7.40
2019-05-22T11:31:59.961Z,8.50
2019-05-22T11:32:59.923Z,8.00
2019-05-22T11:33:59.935Z,8.20
2019-05-22T11:35:00.273Z,8.00
2019-05-22T11:35:59.890Z,8.10
2019-05-22T11:36:59.903Z,7.90
2019-05-22T11:37:59.872Z,8.70
2019-05-22T11:38:59.880Z,8.20
2019-05-22T11:39:59.854Z,8.20
2019-05-22T11:40:59.840Z,8.30
2019-05-22T11:41:59.852Z,8.60
2019-05-22T11:42:59.832Z,8.00
2019-05-22T11:43:59.811Z,8.20
2019-05-22T11:44:59.783Z,8.00
2019-05-22T11:45:59.799Z,9.00
2019-05-22T11:46:59.813Z,7.90
2019-05-22T11:47:59.802Z,8.50
2019-05-22T11:48:59.757Z,8.50
2019-05-22T11:49:59.729Z,8.50
2019-05-22T11:51:01.090Z,8.50
2019-05-22T11:51:59.743Z,8.70
2019-05-22T11:52:59.703Z,9.50
2019-05-22T11:54:09.069Z,8.70
2019-05-22T11:55:00.684Z,8.30
2019-05-22T11:55:59.666Z,8.70
2019-05-22T11:56:59.712Z,9.50
2019-05-22T11:57:59.649Z,8.70
2019-05-22T11:58:59.634Z,9.00
2019-05-22T11:59:59.625Z,9.00
2019-05-22T12:00:59.607Z,8.70
2019-05-22T12:01:59.668Z,9.20
2019-05-22T12:02:59.599Z,10.00
2019-05-22T12:03:59.612Z,9.00
2019-05-22T12:04:59.568Z,8.60
2019-05-22T12:05:59.573Z,9.10
2019-05-22T12:06:59.583Z,9.70
2019-05-22T12:07:59.548Z,9.50
2019-05-22T12:08:59.527Z,10.00
2019-05-22T12:09:59.516Z,10.30
2019-05-22T12:10:59.603Z,11.40
2019-05-22T12:11:59.499Z,11.00
2019-05-22T12:12:59.581Z,10.60
2019-05-22T12:13:59.476Z,10.50
2019-05-22T12:14:59.460Z,10.70
2019-05-22T12:15:59.489Z,10.80
2019-05-22T12:16:59.431Z,10.90
2019-05-22T12:17:59.438Z,10.40
2019-05-22T12:18:59.407Z,9.70
2019-05-22T12:19:59.391Z,10.40
2019-05-22T12:20:59.391Z,11.10
2019-05-22T12:21:59.372Z,11.40
2019-05-22T12:22:59.420Z,10.70
2019-05-22T12:23:59.390Z,10.10
2019-05-22T12:24:59.349Z,10.30
2019-05-22T12:25:59.342Z,10.30
2019-05-22T12:26:59.335Z,10.10
2019-05-22T12:27:59.336Z,10.10
2019-05-22T12:28:59.310Z,10.10
2019-05-22T12:29:59.393Z,10.00
2019-05-22T12:30:59.290Z,10.20
2019-05-22T12:31:59.304Z,10.20
2019-05-22T12:32:59.307Z,10.40
2019-05-22T12:33:59.249Z,10.60
2019-05-22T12:34:59.259Z,10.00
2019-05-22T12:35:59.237Z,10.20
2019-05-22T12:36:59.222Z,9.90
2019-05-22T12:37:59.439Z,10.10
2019-05-22T12:38:59.188Z,9.70
2019-05-22T12:39:59.180Z,9.70
2019-05-22T12:40:59.176Z,9.70
2019-05-22T12:41:59.168Z,10.60
2019-05-22T12:42:59.173Z,10.70
2019-05-22T12:43:59.140Z,10.50
2019-05-22T12:44:59.126Z,11.40
2019-05-22T12:45:59.150Z,10.50
2019-05-22T12:46:59.145Z,11.40
2019-05-22T12:47:59.131Z,11.60
2019-05-22T12:48:59.073Z,12.20
2019-05-22T12:49:59.078Z,12.20
2019-05-22T12:50:59.060Z,12.30
2019-05-22T12:51:59.067Z,12.30
2019-05-22T12:52:59.053Z,12.50
2019-05-22T12:53:59.049Z,12.30
2019-05-22T12:54:59.011Z,12.60
2019-05-22T12:55:59.019Z,12.30
2019-05-22T12:56:59.013Z,11.60
2019-05-22T12:57:59.096Z,11.80
2019-05-22T12:58:59.003Z,12.30
2019-05-22T13:00:02.254Z,12.40
2019-05-22T13:00:59.005Z,12.30
2019-05-22T13:01:58.962Z,13.20
2019-05-22T13:02:58.959Z,12.20
2019-05-22T13:03:58.968Z,11.80
2019-05-22T13:04:58.947Z,12.20
2019-05-22T13:05:59.058Z,12.30
2019-05-22T13:06:58.992Z,12.20
2019-05-22T13:07:58.966Z,12.30
2019-05-22T13:08:59.004Z,12.80
2019-05-22T13:09:58.980Z,12.50
2019-05-22T13:10:58.967Z,12.20
2019-05-22T13:11:58.957Z,13.30
2019-05-22T13:12:58.969Z,12.80
2019-05-22T13:13:58.892Z,12.80